sensor_id;sensor_type;location;lat;lon;timestamp;pressure;altitude;pressure_sealevel;temperature;humidity
5996;BME280;3026;53.612;7.278;2023-10-19T00:00:35;99707.34;;;9.06;100.00
5996;BME280;3026;53.612;7.278;2023-10-19T00:03:04;99703.97;;;9.04;100.00
5996;BME280;3026;53.612;7.278;2023-10-19T00:05:32;99704.81;;;9.04;100.00
5996;BME280;3026;53.612;7.278;2023-10-19T00:08:00;99698.91;;;9.01;100.00
5996;BME280;3026;53.612;7.278;2023-10-19T00:10:37;99696.38;;;8.99;100.00
5996;BME280;3026;53.612;7.278;2023-10-19T00:13:03;99692.16;;;8.97;100.00
5996;BME280;3026;53.612;7.278;2023-10-19T00:15:32;99694.25;;;8.95;100.00
5996;BME280;3026;53.612;7.278;2023-10-19T00:18:00;99687.47;;;8.91;100.00
5996;BME280;3026;53.612;7.278;2023-10-19T00:20:44;99679.06;;;8.86;100.00
5996;BME280;3026;53.612;7.278;2023-10-19T00:23:17;99679.44;;;8.83;100.00
5996;BME280;3026;53.612;7.278;2023-10-19T00:25:51;99667.44;;;8.77;100.00
5996;BME280;3026;53.612;7.278;2023-10-19T00:28:19;99669.72;;;8.73;100.00
5996;BME280;3026;53.612;7.278;2023-10-19T00:30:45;99673.47;;;8.72;100.00
5996;BME280;3026;53.612;7.278;2023-10-19T00:33:14;99669.59;;;8.67;100.00
5996;BME280;3026;53.612;7.278;2023-10-19T00:35:46;99661.66;;;8.65;100.00
5996;BME280;3026;53.612;7.278;2023-10-19T00:38:30;99665.78;;;8.61;100.00
5996;BME280;3026;53.612;7.278;2023-10-19T00:41:08;99655.31;;;8.58;100.00
5996;BME280;3026;53.612;7.278;2023-10-19T00:43:40;99653.63;;;8.57;100.00
5996;BME280;3026;53.612;7.278;2023-10-19T00:46:12;99653.97;;;8.54;100.00
5996;BME280;3026;53.612;7.278;2023-10-19T00:48:49;99649.75;;;8.52;100.00
5996;BME280;3026;53.612;7.278;2023-10-19T00:51:17;99645.56;;;8.49;100.00
5996;BME280;3026;53.612;7.278;2023-10-19T00:54:06;99653.06;;;8.47;100.00
5996;BME280;3026;53.612;7.278;2023-10-19T00:56:37;99645.09;;;8.45;100.00
5996;BME280;3026;53.612;7.278;2023-10-19T00:59:07;99633.75;;;8.42;100.00
5996;BME280;3026;53.612;7.278;2023-10-19T01:01:40;99638.34;;;8.41;100.00
5996;BME280;3026;53.612;7.278;2023-10-19T01:04:12;99630.38;;;8.40;100.00
5996;BME280;3026;53.612;7.278;2023-10-19T01:06:47;99629.09;;;8.36;100.00
5996;BME280;3026;53.612;7.278;2023-10-19T01:09:27;99626.38;;;8.36;100.00
5996;BME280;3026;53.612;7.278;2023-10-19T01:11:56;99605.69;;;8.35;100.00
5996;BME280;3026;53.612;7.278;2023-10-19T01:14:27;99603.97;;;8.34;100.00
5996;BME280;3026;53.612;7.278;2023-10-19T01:16:57;99602.44;;;8.31;100.00
5996;BME280;3026;53.612;7.278;2023-10-19T01:19:26;99599.91;;;8.30;100.00
5996;BME280;3026;53.612;7.278;2023-10-19T01:21:54;99600.94;;;8.29;100.00
5996;BME280;3026;53.612;7.278;2023-10-19T01:24:28;99600.50;;;8.25;100.00
5996;BME280;3026;53.612;7.278;2023-10-19T01:27:05;99596.28;;;8.23;100.00
5996;BME280;3026;53.612;7.278;2023-10-19T01:29:35;99605.44;;;8.22;100.00
5996;BME280;3026;53.612;7.278;2023-10-19T01:32:04;99593.91;;;8.19;100.00
5996;BME280;3026;53.612;7.278;2023-10-19T01:34:33;99590.38;;;8.19;100.00
5996;BME280;3026;53.612;7.278;2023-10-19T01:37:00;99594.97;;;8.18;100.00
5996;BME280;3026;53.612;7.278;2023-10-19T01:39:34;99583.25;;;8.18;100.00
5996;BME280;3026;53.612;7.278;2023-10-19T01:42:02;99579.88;;;8.16;100.00
5996;BME280;3026;53.612;7.278;2023-10-19T01:44:30;99583.63;;;8.15;100.00
5996;BME280;3026;53.612;7.278;2023-10-19T01:46:58;99576.72;;;8.12;100.00
5996;BME280;3026;53.612;7.278;2023-10-19T01:49:26;99575.69;;;8.13;100.00
5996;BME280;3026;53.612;7.278;2023-10-19T01:51:54;99568.56;;;8.12;100.00
5996;BME280;3026;53.612;7.278;2023-10-19T01:54:22;99570.63;;;8.10;100.00
5996;BME280;3026;53.612;7.278;2023-10-19T01:56:52;99552.63;;;8.09;100.00
5996;BME280;3026;53.612;7.278;2023-10-19T01:59:22;99554.69;;;8.07;100.00
5996;BME280;3026;53.612;7.278;2023-10-19T02:01:48;99543.84;;;8.07;100.00
5996;BME280;3026;53.612;7.278;2023-10-19T02:04:17;99544.03;;;8.06;100.00
5996;BME280;3026;53.612;7.278;2023-10-19T02:06:44;99535.06;;;8.05;100.00
5996;BME280;3026;53.612;7.278;2023-10-19T02:09:14;99526.91;;;8.05;100.00
5996;BME280;3026;53.612;7.278;2023-10-19T02:11:43;99523.53;;;8.03;100.00
5996;BME280;3026;53.612;7.278;2023-10-19T02:14:15;99523.75;;;8.02;100.00
5996;BME280;3026;53.612;7.278;2023-10-19T02:16:42;99515.78;;;8.00;100.00
5996;BME280;3026;53.612;7.278;2023-10-19T02:19:11;99521.22;;;8.00;100.00
5996;BME280;3026;53.612;7.278;2023-10-19T02:21:36;99517.81;;;7.98;100.00
5996;BME280;3026;53.612;7.278;2023-10-19T02:24:09;99516.13;;;7.97;100.00
5996;BME280;3026;53.612;7.278;2023-10-19T02:26:36;99501.91;;;7.95;100.00
5996;BME280;3026;53.612;7.278;2023-10-19T02:29:04;99501.91;;;7.95;100.00
5996;BME280;3026;53.612;7.278;2023-10-19T02:31:36;99507.34;;;7.95;100.00
5996;BME280;3026;53.612;7.278;2023-10-19T02:34:06;99508.19;;;7.96;100.00
5996;BME280;3026;53.612;7.278;2023-10-19T02:36:33;99492.75;;;7.96;100.00
5996;BME280;3026;53.612;7.278;2023-10-19T02:39:04;99491.06;;;7.95;100.00
5996;BME280;3026;53.612;7.278;2023-10-19T02:41:34;99488.34;;;7.95;100.00
5996;BME280;3026;53.612;7.278;2023-10-19T02:44:02;99489.38;;;7.94;100.00
5996;BME280;3026;53.612;7.278;2023-10-19T02:46:33;99483.13;;;7.94;100.00
5996;BME280;3026;53.612;7.278;2023-10-19T02:49:03;99484.34;;;7.91;100.00
5996;BME280;3026;53.612;7.278;2023-10-19T02:51:30;99481.63;;;7.91;100.00
5996;BME280;3026;53.612;7.278;2023-10-19T02:53:57;99480.59;;;7.92;100.00
5996;BME280;3026;53.612;7.278;2023-10-19T02:56:26;99482.47;;;7.92;100.00
5996;BME280;3026;53.612;7.278;2023-10-19T02:58:56;99480.59;;;7.92;100.00
5996;BME280;3026;53.612;7.278;2023-10-19T03:01:30;99481.63;;;7.91;100.00
5996;BME280;3026;53.612;7.278;2023-10-19T03:04:02;99478.06;;;7.90;100.00
5996;BME280;3026;53.612;7.278;2023-10-19T03:06:31;99467.22;;;7.90;100.00
5996;BME280;3026;53.612;7.278;2023-10-19T03:09:04;99465.34;;;7.91;100.00
5996;BME280;3026;53.612;7.278;2023-10-19T03:11:30;99457.19;;;7.91;100.00
5996;BME280;3026;53.612;7.278;2023-10-19T03:13:58;99459.72;;;7.93;100.00
5996;BME280;3026;53.612;7.278;2023-10-19T03:16:24;99444.66;;;7.90;100.00
5996;BME280;3026;53.612;7.278;2023-10-19T03:18:57;99444.66;;;7.90;100.00
5996;BME280;3026;53.612;7.278;2023-10-19T03:21:25;99457.19;;;7.91;100.00
5996;BME280;3026;53.612;7.278;2023-10-19T03:23:52;99456.38;;;7.90;100.00
5996;BME280;3026;53.612;7.278;2023-10-19T03:26:23;99466.38;;;7.90;100.00
5996;BME280;3026;53.612;7.278;2023-10-19T03:28:54;99464.69;;;7.89;100.00
5996;BME280;3026;53.612;7.278;2023-10-19T03:31:27;99461.31;;;7.87;100.00
5996;BME280;3026;53.612;7.278;2023-10-19T03:33:56;99450.44;;;7.87;100.00
5996;BME280;3026;53.612;7.278;2023-10-19T03:36:26;99441.66;;;7.85;100.00
5996;BME280;3026;53.612;7.278;2023-10-19T03:38:53;99436.22;;;7.85;100.00
5996;BME280;3026;53.612;7.278;2023-10-19T03:41:21;99442.69;;;7.84;100.00
5996;BME280;3026;53.612;7.278;2023-10-19T03:43:51;99429.13;;;7.84;100.00
5996;BME280;3026;53.612;7.278;2023-10-19T03:46:20;99427.44;;;7.83;100.00
5996;BME280;3026;53.612;7.278;2023-10-19T03:48:55;99436.63;;;7.82;100.00
5996;BME280;3026;53.612;7.278;2023-10-19T03:51:32;99432.22;;;7.81;100.00
5996;BME280;3026;53.612;7.278;2023-10-19T03:54:23;99424.09;;;7.81;100.00
5996;BME280;3026;53.612;7.278;2023-10-19T03:56:51;99413.22;;;7.81;100.00
5996;BME280;3026;53.612;7.278;2023-10-19T03:59:18;99410.53;;;7.81;100.00
5996;BME280;3026;53.612;7.278;2023-10-19T04:01:46;99403.41;;;7.80;100.00
5996;BME280;3026;53.612;7.278;2023-10-19T04:04:13;99400.69;;;7.80;100.00
5996;BME280;3026;53.612;7.278;2023-10-19T04:06:45;99404.44;;;7.79;100.00
5996;BME280;3026;53.612;7.278;2023-10-19T04:09:14;99414.06;;;7.81;100.00
5996;BME280;3026;53.612;7.278;2023-10-19T04:11:45;99412.19;;;7.82;100.00
5996;BME280;3026;53.612;7.278;2023-10-19T04:14:15;99407.81;;;7.81;100.00
5996;BME280;3026;53.612;7.278;2023-10-19T04:16:44;99414.91;;;7.82;100.00
5996;BME280;3026;53.612;7.278;2023-10-19T04:19:14;99414.91;;;7.82;100.00
5996;BME280;3026;53.612;7.278;2023-10-19T04:21:42;99422.03;;;7.83;100.00
5996;BME280;3026;53.612;7.278;2023-10-19T04:24:13;99393.22;;;7.82;100.00
5996;BME280;3026;53.612;7.278;2023-10-19T04:26:43;99400.31;;;7.83;100.00
5996;BME280;3026;53.612;7.278;2023-10-19T04:29:11;99389.47;;;7.83;100.00
5996;BME280;3026;53.612;7.278;2023-10-19T04:31:43;99382.34;;;7.82;100.00
5996;BME280;3026;53.612;7.278;2023-10-19T04:34:20;99401.34;;;7.82;100.00
5996;BME280;3026;53.612;7.278;2023-10-19T04:36:49;99385.91;;;7.82;100.00
5996;BME280;3026;53.612;7.278;2023-10-19T04:39:17;99384.03;;;7.83;100.00
5996;BME280;3026;53.612;7.278;2023-10-19T04:41:45;99385.72;;;7.84;100.00
5996;BME280;3026;53.612;7.278;2023-10-19T04:44:13;99399.09;;;7.85;100.00
5996;BME280;3026;53.612;7.278;2023-10-19T04:46:41;99387.38;;;7.85;100.00
5996;BME280;3026;53.612;7.278;2023-10-19T04:49:08;99392.81;;;7.85;100.00
5996;BME280;3026;53.612;7.278;2023-10-19T04:51:36;99399.91;;;7.86;100.00
5996;BME280;3026;53.612;7.278;2023-10-19T04:54:04;99401.59;;;7.87;100.00
5996;BME280;3026;53.612;7.278;2023-10-19T04:56:37;99397.88;;;7.88;100.00
5996;BME280;3026;53.612;7.278;2023-10-19T04:59:04;99399.56;;;7.89;100.00
5996;BME280;3026;53.612;7.278;2023-10-19T05:01:32;99403.97;;;7.90;100.00
5996;BME280;3026;53.612;7.278;2023-10-19T05:03:59;99397.50;;;7.91;100.00
5996;BME280;3026;53.612;7.278;2023-10-19T05:06:27;99405.44;;;7.93;100.00
5996;BME280;3026;53.612;7.278;2023-10-19T05:08:54;99393.75;;;7.92;100.00
5996;BME280;3026;53.612;7.278;2023-10-19T05:11:23;99388.31;;;7.92;100.00
5996;BME280;3026;53.612;7.278;2023-10-19T05:13:51;99394.59;;;7.93;100.00
5996;BME280;3026;53.612;7.278;2023-10-19T05:16:19;99393.75;;;7.92;100.00
5996;BME280;3026;53.612;7.278;2023-10-19T05:18:47;99388.31;;;7.92;100.00
5996;BME280;3026;53.612;7.278;2023-10-19T05:21:15;99380.38;;;7.90;100.00
5996;BME280;3026;53.612;7.278;2023-10-19T05:23:43;99385.81;;;7.90;100.00
5996;BME280;3026;53.612;7.278;2023-10-19T05:26:12;99387.88;;;7.88;100.00
5996;BME280;3026;53.612;7.278;2023-10-19T05:28:40;99386.19;;;7.87;100.00
5996;BME280;3026;53.612;7.278;2023-10-19T05:31:09;99383.63;;;7.86;100.00
5996;BME280;3026;53.612;7.278;2023-10-19T05:33:39;99390.75;;;7.87;100.00
5996;BME280;3026;53.612;7.278;2023-10-19T05:36:06;99387.03;;;7.88;100.00
5996;BME280;3026;53.612;7.278;2023-10-19T05:38:34;99380.75;;;7.87;100.00
5996;BME280;3026;53.612;7.278;2023-10-19T05:41:02;99395.34;;;7.86;100.00
5996;BME280;3026;53.612;7.278;2023-10-19T05:43:30;99391.78;;;7.86;100.00
5996;BME280;3026;53.612;7.278;2023-10-19T05:45:57;99381.78;;;7.86;100.00
5996;BME280;3026;53.612;7.278;2023-10-19T05:48:30;99395.16;;;7.88;100.00
5996;BME280;3026;53.612;7.278;2023-10-19T05:50:57;99390.75;;;7.87;100.00
5996;BME280;3026;53.612;7.278;2023-10-19T05:53:24;99392.47;;;7.88;100.00
5996;BME280;3026;53.612;7.278;2023-10-19T05:55:52;99397.88;;;7.88;100.00
5996;BME280;3026;53.612;7.278;2023-10-19T05:58:19;99397.22;;;7.86;100.00
5996;BME280;3026;53.612;7.278;2023-10-19T06:00:46;99405.34;;;7.86;100.00
5996;BME280;3026;53.612;7.278;2023-10-19T06:03:16;99391.13;;;7.84;100.00
5996;BME280;3026;53.612;7.278;2023-10-19T06:05:45;99407.41;;;7.84;100.00
5996;BME280;3026;53.612;7.278;2023-10-19T06:08:12;99402.81;;;7.84;100.00
5996;BME280;3026;53.612;7.278;2023-10-19T06:10:39;99403.66;;;7.85;100.00
5996;BME280;3026;53.612;7.278;2023-10-19T06:13:08;99405.53;;;7.84;100.00
5996;BME280;3026;53.612;7.278;2023-10-19T06:15:35;99410.78;;;7.86;100.00
5996;BME280;3026;53.612;7.278;2023-10-19T06:18:05;99399.91;;;7.86;100.00
5996;BME280;3026;53.612;7.278;2023-10-19T06:20:31;99410.78;;;7.86;100.00
5996;BME280;3026;53.612;7.278;2023-10-19T06:23:00;99416.03;;;7.87;100.00
5996;BME280;3026;53.612;7.278;2023-10-19T06:25:32;99410.78;;;7.86;100.00
5996;BME280;3026;53.612;7.278;2023-10-19T06:28:00;99414.53;;;7.85;100.00
5996;BME280;3026;53.612;7.278;2023-10-19T06:30:28;99410.78;;;7.86;100.00
5996;BME280;3026;53.612;7.278;2023-10-19T06:32:55;99414.53;;;7.85;100.00
5996;BME280;3026;53.612;7.278;2023-10-19T06:35:28;99409.09;;;7.85;100.00
5996;BME280;3026;53.612;7.278;2023-10-19T06:37:57;99414.53;;;7.85;100.00
5996;BME280;3026;53.612;7.278;2023-10-19T06:40:27;99415.38;;;7.85;100.00
5996;BME280;3026;53.612;7.278;2023-10-19T06:42:55;99410.78;;;7.86;100.00
5996;BME280;3026;53.612;7.278;2023-10-19T06:45:23;99410.78;;;7.86;100.00
5996;BME280;3026;53.612;7.278;2023-10-19T06:47:52;99414.16;;;7.88;100.00
5996;BME280;3026;53.612;7.278;2023-10-19T06:50:20;99412.09;;;7.90;100.00
5996;BME280;3026;53.612;7.278;2023-10-19T06:52:48;99412.09;;;7.90;100.00
5996;BME280;3026;53.612;7.278;2023-10-19T06:55:17;99417.53;;;7.90;100.00
5996;BME280;3026;53.612;7.278;2023-10-19T06:57:48;99405.63;;;7.91;100.00
5996;BME280;3026;53.612;7.278;2023-10-19T07:00:18;99411.06;;;7.91;100.00
5996;BME280;3026;53.612;7.278;2023-10-19T07:02:47;99414.44;;;7.93;100.00
5996;BME280;3026;53.612;7.278;2023-10-19T07:05:15;99424.25;;;7.94;100.00
5996;BME280;3026;53.612;7.278;2023-10-19T07:07:47;99409.63;;;7.95;100.00
5996;BME280;3026;53.612;7.278;2023-10-19T07:10:18;99410.47;;;7.96;100.00
5996;BME280;3026;53.612;7.278;2023-10-19T07:12:51;99416.75;;;7.96;100.00
5996;BME280;3026;53.612;7.278;2023-10-19T07:15:22;99417.59;;;7.97;100.00
5996;BME280;3026;53.612;7.278;2023-10-19T07:17:51;99425.53;;;7.98;100.00
5996;BME280;3026;53.612;7.278;2023-10-19T07:20:20;99427.25;;;7.99;100.00
5996;BME280;3026;53.612;7.278;2023-10-19T07:22:51;99428.25;;;7.98;100.00
5996;BME280;3026;53.612;7.278;2023-10-19T07:25:18;99423.50;;;8.00;100.00
5996;BME280;3026;53.612;7.278;2023-10-19T07:27:49;99430.59;;;8.01;100.00
5996;BME280;3026;53.612;7.278;2023-10-19T07:30:16;99432.28;;;8.02;100.00
5996;BME280;3026;53.612;7.278;2023-10-19T07:32:48;99428.53;;;8.03;100.00
5996;BME280;3026;53.612;7.278;2023-10-19T07:35:21;99425.19;;;8.01;100.00
5996;BME280;3026;53.612;7.278;2023-10-19T07:37:56;99424.78;;;8.04;100.00
5996;BME280;3026;53.612;7.278;2023-10-19T07:40:23;99433.97;;;8.03;100.00
5996;BME280;3026;53.612;7.278;2023-10-19T07:42:52;99441.91;;;8.05;100.00
5996;BME280;3026;53.612;7.278;2023-10-19T07:45:20;99437.34;;;8.05;100.00
5996;BME280;3026;53.612;7.278;2023-10-19T07:47:49;99434.63;;;8.05;100.00
5996;BME280;3026;53.612;7.278;2023-10-19T07:50:16;99435.66;;;8.04;100.00
5996;BME280;3026;53.612;7.278;2023-10-19T07:52:44;99435.66;;;8.04;100.00
5996;BME280;3026;53.612;7.278;2023-10-19T07:55:12;99444.44;;;8.06;100.00
5996;BME280;3026;53.612;7.278;2023-10-19T07:57:40;99446.13;;;8.07;100.00
5996;BME280;3026;53.612;7.278;2023-10-19T08:00:10;99445.28;;;8.07;100.00
5996;BME280;3026;53.612;7.278;2023-10-19T08:02:43;99451.53;;;8.07;100.00
5996;BME280;3026;53.612;7.278;2023-10-19T08:05:11;99455.28;;;8.06;100.00
5996;BME280;3026;53.612;7.278;2023-10-19T08:07:40;99451.53;;;8.07;100.00
5996;BME280;3026;53.612;7.278;2023-10-19T08:10:09;99440.69;;;8.07;100.00
5996;BME280;3026;53.612;7.278;2023-10-19T08:12:38;99442.38;;;8.08;100.00
5996;BME280;3026;53.612;7.278;2023-10-19T08:15:09;99443.03;;;8.10;100.00
5996;BME280;3026;53.612;7.278;2023-10-19T08:17:38;99441.16;;;8.11;100.00
5996;BME280;3026;53.612;7.278;2023-10-19T08:20:06;99441.16;;;8.11;100.00
5996;BME280;3026;53.612;7.278;2023-10-19T08:22:36;99442.00;;;8.11;100.00
5996;BME280;3026;53.612;7.278;2023-10-19T08:25:04;99436.59;;;8.11;100.00
5996;BME280;3026;53.612;7.278;2023-10-19T08:27:37;99442.00;;;8.11;100.00
5996;BME280;3026;53.612;7.278;2023-10-19T08:30:08;99436.19;;;8.14;100.00
5996;BME280;3026;53.612;7.278;2023-10-19T08:32:35;99434.50;;;8.13;100.00
5996;BME280;3026;53.612;7.278;2023-10-19T08:35:03;99439.94;;;8.13;100.00
5996;BME280;3026;53.612;7.278;2023-10-19T08:37:31;99443.31;;;8.15;100.00
5996;BME280;3026;53.612;7.278;2023-10-19T08:40:00;99442.91;;;8.18;100.00
5996;BME280;3026;53.612;7.278;2023-10-19T08:42:27;99440.19;;;8.18;100.00
5996;BME280;3026;53.612;7.278;2023-10-19T08:44:56;99444.59;;;8.19;100.00
5996;BME280;3026;53.612;7.278;2023-10-19T08:47:28;99440.84;;;8.20;100.00
5996;BME280;3026;53.612;7.278;2023-10-19T08:49:56;99441.50;;;8.23;100.00
5996;BME280;3026;53.612;7.278;2023-10-19T08:52:25;99444.22;;;8.23;100.00
5996;BME280;3026;53.612;7.278;2023-10-19T08:54:54;99442.34;;;8.23;100.00
5996;BME280;3026;53.612;7.278;2023-10-19T08:57:22;99454.69;;;8.26;100.00
5996;BME280;3026;53.612;7.278;2023-10-19T08:59:49;99454.69;;;8.26;100.00
5996;BME280;3026;53.612;7.278;2023-10-19T09:02:18;99462.19;;;8.24;100.00
5996;BME280;3026;53.612;7.278;2023-10-19T09:04:47;99454.69;;;8.26;100.00
5996;BME280;3026;53.612;7.278;2023-10-19T09:07:16;99456.38;;;8.27;100.00
5996;BME280;3026;53.612;7.278;2023-10-19T09:09:43;99463.50;;;8.28;100.00
5996;BME280;3026;53.612;7.278;2023-10-19T09:12:13;99459.94;;;8.27;100.00
5996;BME280;3026;53.612;7.278;2023-10-19T09:14:40;99464.13;;;8.30;100.00
5996;BME280;3026;53.612;7.278;2023-10-19T09:17:11;99473.97;;;8.31;100.00
5996;BME280;3026;53.612;7.278;2023-10-19T09:19:40;99473.97;;;8.31;100.00
5996;BME280;3026;53.612;7.278;2023-10-19T09:22:09;99470.22;;;8.32;100.00
5996;BME280;3026;53.612;7.278;2023-10-19T09:24:44;99472.09;;;8.31;100.00
5996;BME280;3026;53.612;7.278;2023-10-19T09:27:12;99485.66;;;8.31;100.00
5996;BME280;3026;53.612;7.278;2023-10-19T09:29:40;99470.22;;;8.32;100.00
5996;BME280;3026;53.612;7.278;2023-10-19T09:32:08;99481.06;;;8.32;100.00
5996;BME280;3026;53.612;7.278;2023-10-19T09:34:38;99479.19;;;8.32;100.00
5996;BME280;3026;53.612;7.278;2023-10-19T09:37:11;99475.63;;;8.32;100.00
5996;BME280;3026;53.612;7.278;2023-10-19T09:39:39;99484.47;;;8.34;100.00
5996;BME280;3026;53.612;7.278;2023-10-19T09:42:09;99475.63;;;8.32;100.00
5996;BME280;3026;53.612;7.278;2023-10-19T09:44:41;99476.31;;;8.34;100.00
5996;BME280;3026;53.612;7.278;2023-10-19T09:47:11;99471.56;;;8.36;100.00
5996;BME280;3026;53.612;7.278;2023-10-19T09:49:41;99482.44;;;8.36;100.00
5996;BME280;3026;53.612;7.278;2023-10-19T09:52:12;99474.09;;;8.37;100.00
5996;BME280;3026;53.612;7.278;2023-10-19T09:54:48;99474.94;;;8.38;100.00
5996;BME280;3026;53.612;7.278;2023-10-19T09:57:24;99462.38;;;8.37;100.00
5996;BME280;3026;53.612;7.278;2023-10-19T09:59:59;99462.38;;;8.37;100.00
5996;BME280;3026;53.612;7.278;2023-10-19T10:02:34;99471.56;;;8.36;100.00
5996;BME280;3026;53.612;7.278;2023-10-19T10:05:01;99478.69;;;8.37;100.00
5996;BME280;3026;53.612;7.278;2023-10-19T10:07:31;99475.97;;;8.37;100.00
5996;BME280;3026;53.612;7.278;2023-10-19T10:09:58;99469.50;;;8.38;100.00
5996;BME280;3026;53.612;7.278;2023-10-19T10:12:26;99474.94;;;8.38;100.00
5996;BME280;3026;53.612;7.278;2023-10-19T10:14:59;99476.59;;;8.39;100.00
5996;BME280;3026;53.612;7.278;2023-10-19T10:17:29;99476.81;;;8.37;100.00
5996;BME280;3026;53.612;7.278;2023-10-19T10:20:28;99474.09;;;8.37;100.00
5996;BME280;3026;53.612;7.278;2023-10-19T10:23:19;99462.38;;;8.37;100.00
5996;BME280;3026;53.612;7.278;2023-10-19T10:25:50;99460.31;;;8.39;100.00
5996;BME280;3026;53.612;7.278;2023-10-19T10:28:19;99475.38;;;8.41;100.00
5996;BME280;3026;53.612;7.278;2023-10-19T10:31:07;99470.13;;;8.40;100.00
5996;BME280;3026;53.612;7.278;2023-10-19T10:33:47;99466.38;;;8.41;100.00
5996;BME280;3026;53.612;7.278;2023-10-19T10:36:16;99467.41;;;8.40;100.00
5996;BME280;3026;53.612;7.278;2023-10-19T10:38:47;99457.41;;;8.40;100.00
5996;BME280;3026;53.612;7.278;2023-10-19T10:41:20;99454.88;;;8.39;100.00
5996;BME280;3026;53.612;7.278;2023-10-19T10:43:49;99464.50;;;8.41;100.00
5996;BME280;3026;53.612;7.278;2023-10-19T10:46:19;99456.16;;;8.43;100.00
5996;BME280;3026;53.612;7.278;2023-10-19T10:48:47;99453.25;;;8.44;100.00
5996;BME280;3026;53.612;7.278;2023-10-19T10:51:15;99450.53;;;8.44;100.00
5996;BME280;3026;53.612;7.278;2023-10-19T10:53:41;99454.09;;;8.45;100.00
5996;BME280;3026;53.612;7.278;2023-10-19T10:56:10;99451.38;;;8.45;100.00
5996;BME280;3026;53.612;7.278;2023-10-19T10:58:37;99448.66;;;8.45;100.00
5996;BME280;3026;53.612;7.278;2023-10-19T11:01:05;99444.25;;;8.44;100.00
5996;BME280;3026;53.612;7.278;2023-10-19T11:03:33;99449.88;;;8.42;100.00
5996;BME280;3026;53.612;7.278;2023-10-19T11:06:10;99446.34;;;8.42;100.00
5996;BME280;3026;53.612;7.278;2023-10-19T11:08:37;99456.16;;;8.43;100.00
5996;BME280;3026;53.612;7.278;2023-10-19T11:11:07;99446.97;;;8.44;100.00
5996;BME280;3026;53.612;7.278;2023-10-19T11:13:38;99441.53;;;8.44;100.00
5996;BME280;3026;53.612;7.278;2023-10-19T11:16:06;99446.97;;;8.44;100.00
5996;BME280;3026;53.612;7.278;2023-10-19T11:18:36;99442.38;;;8.44;100.00
5996;BME280;3026;53.612;7.278;2023-10-19T11:21:07;99439.88;;;8.43;100.00
5996;BME280;3026;53.612;7.278;2023-10-19T11:23:40;99457.84;;;8.44;100.00
5996;BME280;3026;53.612;7.278;2023-10-19T11:26:09;99454.47;;;8.42;100.00
5996;BME280;3026;53.612;7.278;2023-10-19T11:28:40;99446.13;;;8.43;100.00
5996;BME280;3026;53.612;7.278;2023-10-19T11:31:14;99443.63;;;8.42;100.00
5996;BME280;3026;53.612;7.278;2023-10-19T11:33:42;99436.50;;;8.41;100.00
5996;BME280;3026;53.612;7.278;2023-10-19T11:36:10;99439.88;;;8.43;100.00
5996;BME280;3026;53.612;7.278;2023-10-19T11:38:44;99436.97;;;8.44;100.00
5996;BME280;3026;53.612;7.278;2023-10-19T11:41:13;99443.91;;;8.47;100.00
5996;BME280;3026;53.612;7.278;2023-10-19T11:43:43;99438.47;;;8.47;100.00
5996;BME280;3026;53.612;7.278;2023-10-19T11:46:12;99448.28;;;8.48;100.00
5996;BME280;3026;53.612;7.278;2023-10-19T11:48:40;99426.56;;;8.48;100.00
5996;BME280;3026;53.612;7.278;2023-10-19T11:51:09;99433.69;;;8.49;100.00
5996;BME280;3026;53.612;7.278;2023-10-19T11:53:39;99436.41;;;8.49;100.00
5996;BME280;3026;53.612;7.278;2023-10-19T11:56:08;99432.84;;;8.48;100.00
5996;BME280;3026;53.612;7.278;2023-10-19T11:58:36;99436.59;;;8.47;100.00
5996;BME280;3026;53.612;7.278;2023-10-19T12:01:08;99435.75;;;8.47;100.00
5996;BME280;3026;53.612;7.278;2023-10-19T12:03:37;99441.19;;;8.47;100.00
5996;BME280;3026;53.612;7.278;2023-10-19T12:06:05;99430.69;;;8.44;100.00
5996;BME280;3026;53.612;7.278;2023-10-19T12:08:33;99425.25;;;8.44;100.00
5996;BME280;3026;53.612;7.278;2023-10-19T12:11:01;99429.00;;;8.43;100.00
5996;BME280;3026;53.612;7.278;2023-10-19T12:13:29;99423.56;;;8.43;100.00
5996;BME280;3026;53.612;7.278;2023-10-19T12:15:56;99427.31;;;8.42;100.00
5996;BME280;3026;53.612;7.278;2023-10-19T12:18:25;99422.09;;;8.40;100.00
5996;BME280;3026;53.612;7.278;2023-10-19T12:20:54;99422.28;;;8.39;100.00
5996;BME280;3026;53.612;7.278;2023-10-19T12:23:25;99415.19;;;8.38;100.00
5996;BME280;3026;53.612;7.278;2023-10-19T12:25:52;99419.38;;;8.40;100.00
5996;BME280;3026;53.612;7.278;2023-10-19T12:28:19;99425.00;;;8.39;100.00
5996;BME280;3026;53.612;7.278;2023-10-19T12:30:46;99420.59;;;8.38;100.00
5996;BME280;3026;53.612;7.278;2023-10-19T12:33:14;99431.47;;;8.38;100.00
5996;BME280;3026;53.612;7.278;2023-10-19T12:35:43;99424.34;;;8.37;100.00
5996;BME280;3026;53.612;7.278;2023-10-19T12:38:15;99423.31;;;8.38;100.00
5996;BME280;3026;53.612;7.278;2023-10-19T12:40:44;99420.59;;;8.38;100.00
5996;BME280;3026;53.612;7.278;2023-10-19T12:43:12;99420.59;;;8.38;100.00
5996;BME280;3026;53.612;7.278;2023-10-19T12:45:41;99426.44;;;8.35;100.00
5996;BME280;3026;53.612;7.278;2023-10-19T12:48:09;99429.78;;;8.37;100.00
5996;BME280;3026;53.612;7.278;2023-10-19T12:50:37;99421.44;;;8.38;100.00
5996;BME280;3026;53.612;7.278;2023-10-19T12:53:08;99415.81;;;8.40;100.00
5996;BME280;3026;53.612;7.278;2023-10-19T12:55:37;99411.22;;;8.40;100.00
5996;BME280;3026;53.612;7.278;2023-10-19T12:58:04;99409.53;;;8.39;100.00
5996;BME280;3026;53.612;7.278;2023-10-19T13:00:35;99407.88;;;8.38;100.00
5996;BME280;3026;53.612;7.278;2023-10-19T13:03:07;99405.16;;;8.38;100.00
5996;BME280;3026;53.612;7.278;2023-10-19T13:05:40;99413.09;;;8.40;100.00
5996;BME280;3026;53.612;7.278;2023-10-19T13:08:10;99413.09;;;8.40;100.00
5996;BME280;3026;53.612;7.278;2023-10-19T13:10:40;99413.94;;;8.40;100.00
5996;BME280;3026;53.612;7.278;2023-10-19T13:13:09;99419.38;;;8.40;100.00
5996;BME280;3026;53.612;7.278;2023-10-19T13:15:40;99411.03;;;8.42;100.00
5996;BME280;3026;53.612;7.278;2023-10-19T13:18:09;99407.28;;;8.43;100.00
5996;BME280;3026;53.612;7.278;2023-10-19T13:20:50;99400.16;;;8.42;100.00
5996;BME280;3026;53.612;7.278;2023-10-19T13:23:21;99399.53;;;8.40;100.00
5996;BME280;3026;53.612;7.278;2023-10-19T13:25:49;99409.75;;;8.38;100.00
5996;BME280;3026;53.612;7.278;2023-10-19T13:28:20;99402.63;;;8.37;100.00
5996;BME280;3026;53.612;7.278;2023-10-19T13:30:50;99399.72;;;8.38;100.00
5996;BME280;3026;53.612;7.278;2023-10-19T13:33:19;99384.06;;;8.40;100.00
5996;BME280;3026;53.612;7.278;2023-10-19T13:35:50;99380.13;;;8.43;100.00